Cokercreek, Tennessee
Current Conditions -  °F | °C
As of 6:55 PM on Saturday 25 Oct 2014 (Local Time) from KMMI Reporting Station
Broken Clouds Broken Clouds  
Wind Chill: 19°   Ceiling: 4700
Heat Index: 19°   Visibility: 10mi
Dew Point: 12°   Wind: 0mph
Humidity: 64%   Direction: NA
Pressure: 30.04"   Gusts: NA
Location:  35.27°N, 84.29°W
Report Text: KMMI 252255Z AUTO 00000KT 10SM FEW041 BKN047 BKN060 19/12 A3004 RMK
Loading
Personal Weather Stations






























Interactive Weather Map
Tropical Storm Tracking
New forecast layout! Learn more

10-Day Weather Forecast

Advertisements
Track Severe Weather on mobile